Main page
METAR-TAF:

METAR-TAF

Airports :

Oberpfaffenhofen, Germany

latitude: 48-05N, longitude: 011-17E, elevation: 600 m

Current weather observation

The report was made 26 minutes ago, at 05:50 UTC
Wind 9 kt from the West/Southwest
Temperature 15°C
Humidity 82%
Pressure 1018 hPa
Visibility 10 km or more

METAR: EDMO 220550Z AUTO 25009KT 9999 // FEW038/// OVC076/// 15/12 Q1018

Time: 08:16 (06:16 UTC)

Forecast

The report was made 11 hours and 34 minutes ago, at 18:42 UTC
Forecast valid from 21 at 18 UTC to 21 at 21 UTC
Wind 5 kt from the West/Northwest
Visibility 10 km or more
Scattered clouds at a height of 3500 ft
Temporary
from 21 at 18 UTC to 21 at 20 UTC
Wind 20 kt from the West with gusts up to 30 kt
Visibility: 4000 m
Scattered clouds at a height of 1000 ft
Broken clouds at a height of 3000 ft, Cumulonimbus.
thunderstorm, rain,

TAF: EDMO 211842Z 2118/2121 29005KT 9999 SCT035 TEMPO 2118/2120 26020G30KT 4000 TSRA SCT010 BKN030CB

Weather observations and forecasts of more than 4000 airports (METAR and TAF reports).

The available stations are represented by yellow and red dots on the map.

Hover mouse over dot to see the name of the station.

Then click to see weather observations and forecasts.

To change the map : click on the green buttons with a black cross to zoom in, on the green button with a dash to zoom out, or on the green arrows for adjacent maps.


METAR-TAF: